AirNav   Pilot Hours Calculator
 
 1066 users online  

MU05 Arch Heliport
St Louis, Missouri, USA

GOING TO ST LOUIS?


FAA INFORMATION EFFECTIVE 07 NOVEMBER 2019

Location

FAA Identifier: MU05
Lat/Long: 38-37-30.8800N 090-12-47.7600W
38-37.514667N 090-12.796000W
38.6252444,-90.2132667
(estimated)
Elevation: 500 ft. / 152 m (estimated)
Variation: 01E (1990)
Time zone: UTC -6 (UTC -5 during Daylight Saving Time)
Zip code: 63104

Heliport Operations

Heliport use: Private use, MEDICAL USE.
Activation date: 12/1993
Control tower: no
ARTCC: KANSAS CITY CENTER
FSS: SAINT LOUIS FLIGHT SERVICE STATION
Attendance: CONTINUOUS
Wind indicator: yes
Segmented circle: no

Heliport Communications

WX ASOS at CPS (4 nm SE): PHONE 618-332-0001
WX ASOS at STL (10 nm NW): PHONE 314-890-4790
WX AWOS-3 at ALN (18 nm NE): 128.0 (618-259-7231)

Nearby radio navigation aids

VOR radial/distance  VOR name  Freq  Var
TOYr240/15.4TROY VORTAC116.0004E
STLr137/18.9ST LOUIS VORTAC117.4001E
FTZr092/35.8FORISTELL VORTAC110.8005E

 
NDB name  Hdg/Dist  Freq  Var  ID
ACORE311/9.635000ECP -.-. .--.
ZUMAY164/10.240401WST ... -
CIVIC MEMORIAL206/17.626301WCVM -.-. ...- --

Heliport Services

Runway Information

Helipad H1

Dimensions: 30 x 30 ft. / 9 x 9 m
Surface: concrete
Latitude: 38-37.514667N
Longitude: 090-12.796000W
Elevation: 500.0 ft.
Traffic pattern: leftleft

Heliport Ownership and Management from official FAA records

Ownership: Privately-owned
Owner: ARCH
2207 SCOTT AVE
ST LOUIS, MO 63103
Phone 314-640-3354
Manager: ROBERT GROVES
2207 SCOTT AVE
ST LOUIS, MO 63103
Phone (314) 486-2783

Additional Remarks

A52-H1 45' BLDG 250' SW.
FOR CD CTC ST LOUIS APCH AT 314-890-1018.

Instrument Procedures

There are no published instrument procedures at MU05.

Some nearby airports with instrument procedures:

KCPS - St Louis Downtown Airport (4 nm SE)
KSTL - St Louis Lambert International Airport (10 nm NW)
1H0 - Creve Coeur Airport (15 nm NW)
KALN - St Louis Regional Airport (18 nm NE)
KBLV - Scott Air Force Base/MidAmerica Airport (18 nm E)
 
Loc | Ops | Rwys | IFR | FBO | Links
Com | Nav | Svcs | Stats | Notes

Kansas City Aviation Department
 
Area around MU05 (Arch Heliport)
 
Road maps at: MapQuest Bing Google
 
Aerial photo
No photo
 
Sectional chart

 
Airport distance calculator
Flying to Arch Heliport? Find the distance to fly.

From to MU05

Sunrise and sunset
Times for 21-Nov-2019
 Local
(UTC-6)
 Zulu
(UTC)
Morning civil twilight06:2212:22
Sunrise06:5012:50
Sunset16:4322:43
Evening civil twilight17:1223:12

Current date and time
Zulu (UTC)  21-Nov-2019 14:02:37
Local (UTC-6)  21-Nov-2019 08:02:37
 
METAR
KCPS 
5nm SE 
211353Z 20009G15KT 10SM BKN020 OVC030 20/10 A2992 RMK AO2 SLP129 T02000100
KSTL 
10nm NW 
211351Z 21011KT 10SM FEW020 BKN027 BKN040 13/10 A2990 RMK AO2 SLP124 T01330100
KALN 
18nm NE 
211350Z 17008KT 10SM BKN016 OVC029 10/10 A2992
KBLV 
19nm E 
211358Z 18008G16KT 10SM BKN018 OVC035 12/10 A2992 RMK CIG 017 RWY32L CIG 016 RWY32R SLP136 P0001 T01150101 $
TAF
KCPS 
5nm SE 
211133Z 2112/2212 16008KT 6SM -SHRA OVC040 FM211300 18013G23KT P6SM OVC035 FM211400 20012G24KT P6SM BKN025 FM211600 22012G24KT P6SM VCSH BKN025 FM211800 27011G22KT P6SM OVC025 FM212300 31010KT P6SM OVC020 FM220900 01008KT P6SM BKN060
KSTL 
10nm NW 
211133Z 2112/2218 19014G23KT P6SM VCSH OVC040 FM211300 20013G23KT P6SM OVC035 FM211400 20012G24KT P6SM BKN025 FM211600 22012G24KT P6SM VCSH BKN025 FM211800 27011G22KT P6SM OVC025 FM212300 31010KT P6SM OVC020 FM220900 01008KT P6SM BKN060
KBLV 
19nm E 
211055Z 2110/2214 17012KT 9999 -SHRA BKN050 QNH2992INS BECMG 2114/2115 18012KT 9999 -SHRA BKN012 OVC017 QNH2987INS TEMPO 2115/2118 19015G20KT 8000 -SHRA OVC007 BECMG 2119/2120 33010G15KT 9000 BR OVC015 QNH2988INS BECMG 2209/2210 36012KT 9999 NSW BKN025 QNH2988INS TX15/2118Z TN07/2205Z
NOTAMs
Click for the latest NOTAMs
NOTAMs are issued by the DoD/FAA and will open in a separate window not controlled by AirNav.

 

 
 

Would you like to see your business listed on this page?

 If your business provides an interesting product or service to pilots, flight crews, aircraft, or users of the Arch Heliport, you should consider listing it here.  To start the listing process, click on the button below
 
Add a business
 

Other Pages about Arch Heliport

members.aol.com/...
 
Update a link
 
Copyright © AirNav, LLC. All rights reserved. Privacy Policy  Contact